Terminal Aerodrome Forecast
Issued by NWS

Home | Current Version | Previous Version | Text Only | Print | Product List | Glossary On
Versions: 1 2 3 4 5 6 7 8 9 10 11 12 13 14 15 16 17 18 19 20
000
FTUS43 KLSX 201723
TAFSUS
TAF
KSUS 201723Z 2018/2118 16011G20KT P6SM BKN250
     FM210000 16009KT P6SM VCSH BKN200
     FM210400 20005KT 5SM -SHRA SCT025 OVC050
     FM210900 VRB03KT P6SM VCSH SCT025 OVC040
     FM211100 VRB03KT P6SM OVC060=

USA.gov is the U.S. government's official web portal to all federal, state and local government web resources and services.